sensor_id;sensor_type;location;lat;lon;timestamp;pressure;altitude;pressure_sealevel;temperature;humidity
22257;BME280;11297;42.686;23.374;2022-09-09T00:03:53;95213.44;;;23.13;53.86
22257;BME280;11297;42.686;23.374;2022-09-09T00:06:31;95208.59;;;23.33;53.31
22257;BME280;11297;42.686;23.374;2022-09-09T00:09:19;95207.50;;;23.48;52.58
22257;BME280;11297;42.686;23.374;2022-09-09T00:11:54;95212.44;;;23.46;52.63
22257;BME280;11297;42.686;23.374;2022-09-09T00:17:03;95205.81;;;22.95;54.78
22257;BME280;11297;42.686;23.374;2022-09-09T00:19:46;95213.56;;;22.63;55.93
22257;BME280;11297;42.686;23.374;2022-09-09T00:22:21;95211.47;;;22.36;57.57
22257;BME280;11297;42.686;23.374;2022-09-09T00:24:55;95205.31;;;22.22;57.98
22257;BME280;11297;42.686;23.374;2022-09-09T00:30:27;95194.16;;;22.03;58.62
22257;BME280;11297;42.686;23.374;2022-09-09T00:33:01;95180.22;;;22.06;58.16
22257;BME280;11297;42.686;23.374;2022-09-09T00:35:32;95190.50;;;22.17;58.12
22257;BME280;11297;42.686;23.374;2022-09-09T00:38:15;95186.88;;;22.36;57.31
22257;BME280;11297;42.686;23.374;2022-09-09T00:40:58;95189.59;;;22.46;57.80
22257;BME280;11297;42.686;23.374;2022-09-09T00:43:32;95179.50;;;22.65;56.22
22257;BME280;11297;42.686;23.374;2022-09-09T00:59:52;95183.72;;;22.77;55.98
22257;BME280;11297;42.686;23.374;2022-09-09T01:02:30;95172.78;;;22.85;54.15
22257;BME280;11297;42.686;23.374;2022-09-09T01:05:05;95178.06;;;22.78;54.26
22257;BME280;11297;42.686;23.374;2022-09-09T01:07:32;95173.47;;;22.68;54.16
22257;BME280;11297;42.686;23.374;2022-09-09T01:09:59;95171.22;;;22.74;56.08
22257;BME280;11297;42.686;23.374;2022-09-09T01:12:34;95177.28;;;22.78;54.64
22257;BME280;11297;42.686;23.374;2022-09-09T01:15:18;95178.06;;;22.78;54.51
22257;BME280;11297;42.686;23.374;2022-09-09T01:17:50;95173.16;;;22.84;54.50
22257;BME280;11297;42.686;23.374;2022-09-09T01:20:23;95175.50;;;22.96;55.21
22257;BME280;11297;42.686;23.374;2022-09-09T01:28:29;95175.53;;;22.99;54.49
22257;BME280;11297;42.686;23.374;2022-09-09T01:30:57;95169.88;;;23.01;54.98
22257;BME280;11297;42.686;23.374;2022-09-09T01:33:23;95171.41;;;23.12;54.41
22257;BME280;11297;42.686;23.374;2022-09-09T01:35:56;95173.34;;;23.25;52.79
22257;BME280;11297;42.686;23.374;2022-09-09T01:38:24;95183.22;;;23.35;52.84
22257;BME280;11297;42.686;23.374;2022-09-09T01:40:51;95184.38;;;23.38;52.30
22257;BME280;11297;42.686;23.374;2022-09-09T01:43:19;95187.03;;;23.41;52.71
22257;BME280;11297;42.686;23.374;2022-09-09T01:45:46;95187.78;;;23.42;52.56
22257;BME280;11297;42.686;23.374;2022-09-09T01:48:12;95190.44;;;23.42;52.48
22257;BME280;11297;42.686;23.374;2022-09-09T01:50:37;95188.16;;;23.37;52.36
22257;BME280;11297;42.686;23.374;2022-09-09T01:53:03;95191.56;;;23.30;52.99
22257;BME280;11297;42.686;23.374;2022-09-09T01:55:36;95199.16;;;23.35;52.83
22257;BME280;11297;42.686;23.374;2022-09-09T02:00:56;95201.38;;;23.23;51.37
22257;BME280;11297;42.686;23.374;2022-09-09T02:03:28;95198.69;;;23.19;52.25
22257;BME280;11297;42.686;23.374;2022-09-09T02:06:10;95193.03;;;23.14;52.24
22257;BME280;11297;42.686;23.374;2022-09-09T02:08:45;95194.47;;;23.01;53.23
22257;BME280;11297;42.686;23.374;2022-09-09T02:11:17;95188.06;;;23.06;52.76
22257;BME280;11297;42.686;23.374;2022-09-09T02:13:45;95187.31;;;23.08;52.43
22257;BME280;11297;42.686;23.374;2022-09-09T02:21:23;95174.50;;;23.24;54.17
22257;BME280;11297;42.686;23.374;2022-09-09T02:23:51;95166.53;;;23.31;53.23
22257;BME280;11297;42.686;23.374;2022-09-09T02:26:19;95165.41;;;23.29;53.28
22257;BME280;11297;42.686;23.374;2022-09-09T02:28:49;95168.81;;;23.33;52.09
22257;BME280;11297;42.686;23.374;2022-09-09T02:31:18;95170.34;;;23.34;51.46
22257;BME280;11297;42.686;23.374;2022-09-09T02:33:50;95176.78;;;23.33;52.04
22257;BME280;11297;42.686;23.374;2022-09-09T02:36:17;95182.44;;;23.24;53.15
22257;BME280;11297;42.686;23.374;2022-09-09T02:38:46;95177.53;;;23.30;52.95
22257;BME280;11297;42.686;23.374;2022-09-09T02:41:20;95174.91;;;23.37;52.46
22257;BME280;11297;42.686;23.374;2022-09-09T02:43:49;95182.13;;;23.47;52.82
22257;BME280;11297;42.686;23.374;2022-09-09T02:56:53;95197.75;;;23.76;49.98
22257;BME280;11297;42.686;23.374;2022-09-09T02:59:20;95192.81;;;23.71;50.55
22257;BME280;11297;42.686;23.374;2022-09-09T03:01:46;95189.03;;;23.75;52.35
22257;BME280;11297;42.686;23.374;2022-09-09T03:04:12;95188.66;;;23.80;52.20
22257;BME280;11297;42.686;23.374;2022-09-09T03:06:37;95195.09;;;23.86;52.00
22257;BME280;11297;42.686;23.374;2022-09-09T03:09:03;95194.75;;;23.95;50.91
22257;BME280;11297;42.686;23.374;2022-09-09T03:11:28;95197.41;;;23.91;50.58
22257;BME280;11297;42.686;23.374;2022-09-09T03:13:54;95197.00;;;23.75;50.53
22257;BME280;11297;42.686;23.374;2022-09-09T03:16:22;95185.56;;;23.54;51.22
22257;BME280;11297;42.686;23.374;2022-09-09T03:18:47;95189.66;;;23.31;52.19
22257;BME280;11297;42.686;23.374;2022-09-09T03:21:13;95197.19;;;23.18;52.04
22257;BME280;11297;42.686;23.374;2022-09-09T03:23:39;95198.31;;;23.14;54.87
22257;BME280;11297;42.686;23.374;2022-09-09T03:26:05;95185.81;;;23.11;53.86
22257;BME280;11297;42.686;23.374;2022-09-09T03:28:30;95179.34;;;23.05;52.42
22257;BME280;11297;42.686;23.374;2022-09-09T03:31:03;95170.59;;;22.98;53.56
22257;BME280;11297;42.686;23.374;2022-09-09T03:33:29;95194.88;;;23.10;51.78
22257;BME280;11297;42.686;23.374;2022-09-09T03:35:55;95188.00;;;22.99;50.69
22257;BME280;11297;42.686;23.374;2022-09-09T03:38:25;95189.91;;;22.98;51.45
22257;BME280;11297;42.686;23.374;2022-09-09T03:40:54;95186.53;;;23.05;50.63
22257;BME280;11297;42.686;23.374;2022-09-09T03:43:24;95191.88;;;23.11;53.39
22257;BME280;11297;42.686;23.374;2022-09-09T03:45:51;95190.00;;;23.15;52.24
22257;BME280;11297;42.686;23.374;2022-09-09T03:48:17;95191.91;;;23.22;51.97
22257;BME280;11297;42.686;23.374;2022-09-09T03:50:49;95191.16;;;23.25;51.24
22257;BME280;11297;42.686;23.374;2022-09-09T03:53:16;95194.97;;;23.31;52.22
22257;BME280;11297;42.686;23.374;2022-09-09T03:55:46;95207.09;;;23.39;52.58
22257;BME280;11297;42.686;23.374;2022-09-09T03:58:16;95207.13;;;23.46;52.15
22257;BME280;11297;42.686;23.374;2022-09-09T04:00:54;95193.53;;;23.54;51.82
22257;BME280;11297;42.686;23.374;2022-09-09T04:03:20;95196.56;;;23.56;52.64
22257;BME280;11297;42.686;23.374;2022-09-09T04:05:48;95207.56;;;23.61;52.59
22257;BME280;11297;42.686;23.374;2022-09-09T04:08:14;95211.72;;;23.59;52.23
22257;BME280;11297;42.686;23.374;2022-09-09T04:10:40;95211.38;;;23.64;51.99
22257;BME280;11297;42.686;23.374;2022-09-09T04:13:05;95201.47;;;23.57;53.10
22257;BME280;11297;42.686;23.374;2022-09-09T04:15:31;95211.31;;;23.50;53.35
22257;BME280;11297;42.686;23.374;2022-09-09T04:17:57;95199.59;;;23.54;53.11
22257;BME280;11297;42.686;23.374;2022-09-09T04:20:23;95198.88;;;23.64;52.85
22257;BME280;11297;42.686;23.374;2022-09-09T04:22:49;95203.47;;;23.78;51.83
22257;BME280;11297;42.686;23.374;2022-09-09T04:25:14;95197.78;;;23.83;52.23
22257;BME280;11297;42.686;23.374;2022-09-09T04:27:40;95200.41;;;23.86;51.53
22257;BME280;11297;42.686;23.374;2022-09-09T04:30:06;95199.31;;;23.94;51.27
22257;BME280;11297;42.686;23.374;2022-09-09T04:32:33;95201.97;;;23.98;49.09
22257;BME280;11297;42.686;23.374;2022-09-09T04:34:58;95206.13;;;24.02;50.06
22257;BME280;11297;42.686;23.374;2022-09-09T04:37:24;95203.47;;;24.05;49.26
22257;BME280;11297;42.686;23.374;2022-09-09T04:39:50;95197.41;;;24.05;48.42
22257;BME280;11297;42.686;23.374;2022-09-09T04:42:15;95202.72;;;24.02;49.09
22257;BME280;11297;42.686;23.374;2022-09-09T04:44:42;95203.09;;;23.90;48.49
22257;BME280;11297;42.686;23.374;2022-09-09T04:47:09;95203.44;;;23.74;49.87
22257;BME280;11297;42.686;23.374;2022-09-09T04:49:34;95201.03;;;23.31;51.41
22257;BME280;11297;42.686;23.374;2022-09-09T04:52:02;95205.63;;;23.48;49.60
22257;BME280;11297;42.686;23.374;2022-09-09T04:54:27;95208.59;;;23.26;49.93
22257;BME280;11297;42.686;23.374;2022-09-09T04:56:53;95193.03;;;23.21;53.05
22257;BME280;11297;42.686;23.374;2022-09-09T04:59:20;95196.44;;;23.18;53.43
22257;BME280;11297;42.686;23.374;2022-09-09T05:01:45;95188.94;;;23.41;54.56
22257;BME280;11297;42.686;23.374;2022-09-09T05:04:11;95192.25;;;23.13;52.55
22257;BME280;11297;42.686;23.374;2022-09-09T05:06:36;95193.97;;;22.85;52.96
22257;BME280;11297;42.686;23.374;2022-09-09T05:09:02;95187.28;;;23.02;54.01
22257;BME280;11297;42.686;23.374;2022-09-09T05:11:30;95167.56;;;22.96;52.84
22257;BME280;11297;42.686;23.374;2022-09-09T05:13:57;95168.00;;;23.15;53.12
22257;BME280;11297;42.686;23.374;2022-09-09T05:16:23;95177.19;;;23.42;52.31
22257;BME280;11297;42.686;23.374;2022-09-09T05:18:48;95187.13;;;23.76;51.49
22257;BME280;11297;42.686;23.374;2022-09-09T05:21:17;95187.41;;;23.43;52.54
22257;BME280;11297;42.686;23.374;2022-09-09T05:23:44;95188.59;;;23.53;52.62
22257;BME280;11297;42.686;23.374;2022-09-09T05:26:13;95188.19;;;23.51;52.33
22257;BME280;11297;42.686;23.374;2022-09-09T05:28:39;95180.69;;;23.80;52.18
22257;BME280;11297;42.686;23.374;2022-09-09T05:31:07;95187.16;;;23.83;51.99
22257;BME280;11297;42.686;23.374;2022-09-09T05:33:34;95186.00;;;23.66;52.47
22257;BME280;11297;42.686;23.374;2022-09-09T05:36:03;95174.63;;;23.80;51.43
22257;BME280;11297;42.686;23.374;2022-09-09T05:38:43;95178.72;;;23.43;52.85
22257;BME280;11297;42.686;23.374;2022-09-09T05:41:10;95184.38;;;23.41;52.88
22257;BME280;11297;42.686;23.374;2022-09-09T05:43:41;95178.22;;;23.13;52.34
22257;BME280;11297;42.686;23.374;2022-09-09T05:46:10;95182.81;;;23.23;53.13
22257;BME280;11297;42.686;23.374;2022-09-09T05:48:37;95183.97;;;23.32;52.74
22257;BME280;11297;42.686;23.374;2022-09-09T05:51:04;95196.63;;;23.73;52.32
22257;BME280;11297;42.686;23.374;2022-09-09T05:53:30;95189.78;;;23.76;50.11
22257;BME280;11297;42.686;23.374;2022-09-09T05:56:15;95184.50;;;24.17;51.72
22257;BME280;11297;42.686;23.374;2022-09-09T05:58:41;95184.47;;;24.73;48.59
22257;BME280;11297;42.686;23.374;2022-09-09T06:01:17;95185.19;;;24.84;47.30
22257;BME280;11297;42.686;23.374;2022-09-09T06:03:44;95188.91;;;25.17;46.49
22257;BME280;11297;42.686;23.374;2022-09-09T06:06:15;95182.53;;;24.84;47.52
22257;BME280;11297;42.686;23.374;2022-09-09T06:08:42;95196.56;;;25.08;46.30
22257;BME280;11297;42.686;23.374;2022-09-09T06:11:14;95201.47;;;24.96;46.17
22257;BME280;11297;42.686;23.374;2022-09-09T06:13:40;95201.72;;;25.40;45.18
22257;BME280;11297;42.686;23.374;2022-09-09T06:16:09;95198.25;;;25.49;45.10
22257;BME280;11297;42.686;23.374;2022-09-09T06:18:36;95194.63;;;25.91;43.26
22257;BME280;11297;42.686;23.374;2022-09-09T06:21:07;95194.94;;;26.50;47.56
22257;BME280;11297;42.686;23.374;2022-09-09T06:23:33;95200.03;;;27.11;47.55
22257;BME280;11297;42.686;23.374;2022-09-09T06:26:07;95200.91;;;27.64;46.87
22257;BME280;11297;42.686;23.374;2022-09-09T06:28:33;95200.31;;;28.09;43.38
22257;BME280;11297;42.686;23.374;2022-09-09T06:31:20;95208.69;;;28.56;44.14
22257;BME280;11297;42.686;23.374;2022-09-09T06:33:50;95198.97;;;28.89;41.91
22257;BME280;11297;42.686;23.374;2022-09-09T06:36:17;95194.25;;;29.15;44.54
22257;BME280;11297;42.686;23.374;2022-09-09T06:38:44;95192.28;;;29.39;40.82
22257;BME280;11297;42.686;23.374;2022-09-09T06:41:10;95172.84;;;29.70;42.14
22257;BME280;11297;42.686;23.374;2022-09-09T06:43:37;95190.69;;;29.95;43.40
22257;BME280;11297;42.686;23.374;2022-09-09T06:46:10;95178.03;;;30.12;43.04
22257;BME280;11297;42.686;23.374;2022-09-09T06:48:36;95173.78;;;30.30;43.05
22257;BME280;11297;42.686;23.374;2022-09-09T06:53:35;95178.38;;;30.14;37.83
22257;BME280;11297;42.686;23.374;2022-09-09T06:56:22;95193.66;;;30.17;43.26
22257;BME280;11297;42.686;23.374;2022-09-09T06:58:50;95190.03;;;29.72;42.18
22257;BME280;11297;42.686;23.374;2022-09-09T07:01:24;95195.56;;;30.00;39.09
22257;BME280;11297;42.686;23.374;2022-09-09T07:03:51;95198.00;;;30.11;40.95
22257;BME280;11297;42.686;23.374;2022-09-09T07:06:19;95193.66;;;30.17;36.86
22257;BME280;11297;42.686;23.374;2022-09-09T07:08:54;95197.22;;;30.10;39.19
22257;BME280;11297;42.686;23.374;2022-09-09T07:11:21;95201.50;;;30.08;40.62
22257;BME280;11297;42.686;23.374;2022-09-09T07:13:47;95186.19;;;30.24;39.12
22257;BME280;11297;42.686;23.374;2022-09-09T07:16:15;95181.31;;;29.68;37.57
22257;BME280;11297;42.686;23.374;2022-09-09T07:18:42;95181.75;;;29.47;37.64
22257;BME280;11297;42.686;23.374;2022-09-09T07:21:10;95184.03;;;28.91;38.10
22257;BME280;11297;42.686;23.374;2022-09-09T07:23:37;95187.34;;;28.53;38.58
22257;BME280;11297;42.686;23.374;2022-09-09T07:26:10;95187.53;;;28.20;39.15
22257;BME280;11297;42.686;23.374;2022-09-09T07:28:37;95183.19;;;28.03;39.84
22257;BME280;11297;42.686;23.374;2022-09-09T07:31:04;95177.28;;;27.89;39.98
22257;BME280;11297;42.686;23.374;2022-09-09T07:33:32;95177.84;;;28.03;40.20
22257;BME280;11297;42.686;23.374;2022-09-09T07:36:19;95185.09;;;28.29;43.55
22257;BME280;11297;42.686;23.374;2022-09-09T07:38:49;95177.94;;;28.45;37.90
22257;BME280;11297;42.686;23.374;2022-09-09T07:41:19;95171.47;;;28.88;37.81
22257;BME280;11297;42.686;23.374;2022-09-09T07:43:46;95175.03;;;28.82;38.10
22257;BME280;11297;42.686;23.374;2022-09-09T07:46:14;95177.69;;;28.59;38.47
22257;BME280;11297;42.686;23.374;2022-09-09T07:48:48;95188.59;;;28.71;38.81
22257;BME280;11297;42.686;23.374;2022-09-09T07:51:19;95189.78;;;29.09;38.70
22257;BME280;11297;42.686;23.374;2022-09-09T07:53:48;95189.94;;;29.41;37.97
22257;BME280;11297;42.686;23.374;2022-09-09T07:56:16;95173.84;;;29.95;36.79
22257;BME280;11297;42.686;23.374;2022-09-09T07:58:45;95182.31;;;29.93;36.32
22257;BME280;11297;42.686;23.374;2022-09-09T08:01:13;95177.38;;;30.24;36.68
22257;BME280;11297;42.686;23.374;2022-09-09T08:03:39;95176.50;;;30.74;36.92
22257;BME280;11297;42.686;23.374;2022-09-09T08:06:07;95158.13;;;30.89;34.49
22257;BME280;11297;42.686;23.374;2022-09-09T08:08:33;95166.91;;;31.17;34.81
22257;BME280;11297;42.686;23.374;2022-09-09T08:11:08;95162.53;;;30.95;35.49
22257;BME280;11297;42.686;23.374;2022-09-09T08:13:35;95171.72;;;31.10;36.16
22257;BME280;11297;42.686;23.374;2022-09-09T08:16:27;95173.72;;;30.93;35.35
22257;BME280;11297;42.686;23.374;2022-09-09T08:18:53;95177.34;;;31.15;35.91
22257;BME280;11297;42.686;23.374;2022-09-09T08:21:27;95171.22;;;30.71;35.44
22257;BME280;11297;42.686;23.374;2022-09-09T08:23:54;95165.59;;;31.09;36.56
22257;BME280;11297;42.686;23.374;2022-09-09T08:26:35;95163.50;;;30.89;35.90
22257;BME280;11297;42.686;23.374;2022-09-09T08:29:03;95168.63;;;30.67;35.36
22257;BME280;11297;42.686;23.374;2022-09-09T08:31:34;95161.22;;;30.87;36.02
22257;BME280;11297;42.686;23.374;2022-09-09T08:34:00;95159.06;;;30.66;35.49
22257;BME280;11297;42.686;23.374;2022-09-09T08:36:29;95168.53;;;30.71;35.63
22257;BME280;11297;42.686;23.374;2022-09-09T08:38:56;95160.25;;;30.65;36.67
22257;BME280;11297;42.686;23.374;2022-09-09T08:44:12;95164.38;;;30.98;35.94
22257;BME280;11297;42.686;23.374;2022-09-09T08:51:43;95149.16;;;30.03;36.85
22257;BME280;11297;42.686;23.374;2022-09-09T08:54:08;95146.22;;;30.14;37.76
22257;BME280;11297;42.686;23.374;2022-09-09T08:56:35;95156.16;;;30.29;38.24
22257;BME280;11297;42.686;23.374;2022-09-09T08:59:02;95154.06;;;30.21;36.13
22257;BME280;11297;42.686;23.374;2022-09-09T09:04:29;95148.63;;;30.56;35.24
22257;BME280;11297;42.686;23.374;2022-09-09T09:12:19;95142.97;;;30.66;34.62
22257;BME280;11297;42.686;23.374;2022-09-09T09:14:47;95148.56;;;30.72;35.18
22257;BME280;11297;42.686;23.374;2022-09-09T09:17:16;95152.34;;;30.74;34.70
22257;BME280;11297;42.686;23.374;2022-09-09T09:19:48;95146.25;;;30.58;35.25
22257;BME280;11297;42.686;23.374;2022-09-09T09:22:32;95145.75;;;30.31;35.58
22257;BME280;11297;42.686;23.374;2022-09-09T09:27:37;95140.09;;;29.62;37.45
22257;BME280;11297;42.686;23.374;2022-09-09T09:30:26;95139.00;;;29.60;37.11
22257;BME280;11297;42.686;23.374;2022-09-09T09:35:26;95145.19;;;29.57;37.56
22257;BME280;11297;42.686;23.374;2022-09-09T09:37:51;95143.63;;;29.59;37.08
22257;BME280;11297;42.686;23.374;2022-09-09T09:40:20;95142.19;;;29.55;37.11
22257;BME280;11297;42.686;23.374;2022-09-09T09:45:44;95140.25;;;28.82;38.46
22257;BME280;11297;42.686;23.374;2022-09-09T09:48:13;95140.03;;;28.73;38.26
22257;BME280;11297;42.686;23.374;2022-09-09T09:50:59;95116.22;;;28.78;37.98
22257;BME280;11297;42.686;23.374;2022-09-09T09:53:27;95126.66;;;28.73;39.00
22257;BME280;11297;42.686;23.374;2022-09-09T09:55:57;95128.06;;;28.35;40.20
22257;BME280;11297;42.686;23.374;2022-09-09T09:58:25;95124.91;;;28.63;47.02
22257;BME280;11297;42.686;23.374;2022-09-09T10:00:53;95118.13;;;28.97;43.35
22257;BME280;11297;42.686;23.374;2022-09-09T10:03:24;95117.66;;;29.02;46.71
22257;BME280;11297;42.686;23.374;2022-09-09T10:05:50;95115.31;;;29.23;48.18
22257;BME280;11297;42.686;23.374;2022-09-09T10:08:16;95124.41;;;29.45;45.39
22257;BME280;11297;42.686;23.374;2022-09-09T10:27:37;95138.13;;;29.66;44.86
22257;BME280;11297;42.686;23.374;2022-09-09T10:30:18;95130.06;;;29.66;40.13
22257;BME280;11297;42.686;23.374;2022-09-09T10:40:28;95134.88;;;29.40;40.65
22257;BME280;11297;42.686;23.374;2022-09-09T10:46:17;95136.59;;;29.30;44.24
22257;BME280;11297;42.686;23.374;2022-09-09T10:49:01;95144.47;;;29.18;44.92
22257;BME280;11297;42.686;23.374;2022-09-09T10:56:51;95147.50;;;29.20;46.03
22257;BME280;11297;42.686;23.374;2022-09-09T10:59:24;95136.44;;;29.37;42.60
22257;BME280;11297;42.686;23.374;2022-09-09T11:02:20;95114.50;;;29.26;43.96
22257;BME280;11297;42.686;23.374;2022-09-09T11:04:55;95134.94;;;29.36;44.71
22257;BME280;11297;42.686;23.374;2022-09-09T11:07:48;95135.72;;;29.17;41.62
22257;BME280;11297;42.686;23.374;2022-09-09T11:10:40;95133.50;;;29.12;43.12
22257;BME280;11297;42.686;23.374;2022-09-09T11:13:11;95143.25;;;29.03;42.86
22257;BME280;11297;42.686;23.374;2022-09-09T11:15:50;95145.84;;;28.87;43.75
22257;BME280;11297;42.686;23.374;2022-09-09T11:18:20;95144.09;;;29.00;45.38
22257;BME280;11297;42.686;23.374;2022-09-09T11:20:52;95137.56;;;29.01;43.56
22257;BME280;11297;42.686;23.374;2022-09-09T11:23:40;95126.69;;;29.08;44.33
22257;BME280;11297;42.686;23.374;2022-09-09T11:26:07;95125.69;;;29.02;43.14
22257;BME280;11297;42.686;23.374;2022-09-09T11:28:46;95119.66;;;28.98;41.38
22257;BME280;11297;42.686;23.374;2022-09-09T11:31:44;95120.00;;;29.00;42.15
22257;BME280;11297;42.686;23.374;2022-09-09T11:37:17;95101.78;;;29.11;44.06
22257;BME280;11297;42.686;23.374;2022-09-09T11:40:26;95101.13;;;29.07;42.10
22257;BME280;11297;42.686;23.374;2022-09-09T11:43:10;95098.25;;;28.98;42.61
22257;BME280;11297;42.686;23.374;2022-09-09T11:45:39;95087.59;;;28.94;42.56
22257;BME280;11297;42.686;23.374;2022-09-09T11:48:22;95082.66;;;28.93;42.90
22257;BME280;11297;42.686;23.374;2022-09-09T11:53:26;95064.75;;;28.90;44.49
22257;BME280;11297;42.686;23.374;2022-09-09T11:59:19;95046.75;;;29.10;44.69
22257;BME280;11297;42.686;23.374;2022-09-09T12:01:54;95047.91;;;29.28;46.16
22257;BME280;11297;42.686;23.374;2022-09-09T12:04:39;95060.53;;;29.43;42.45
22257;BME280;11297;42.686;23.374;2022-09-09T12:17:22;95053.00;;;29.03;43.96
22257;BME280;11297;42.686;23.374;2022-09-09T12:19:59;95038.63;;;29.13;42.72
22257;BME280;11297;42.686;23.374;2022-09-09T12:30:24;95037.72;;;29.55;42.19
22257;BME280;11297;42.686;23.374;2022-09-09T12:33:21;95035.69;;;29.75;42.99
22257;BME280;11297;42.686;23.374;2022-09-09T12:35:54;95023.06;;;29.91;43.08
22257;BME280;11297;42.686;23.374;2022-09-09T12:38:37;95022.34;;;30.19;41.66
22257;BME280;11297;42.686;23.374;2022-09-09T12:41:04;95025.59;;;30.26;42.42
22257;BME280;11297;42.686;23.374;2022-09-09T12:43:30;95019.28;;;30.33;41.86
22257;BME280;11297;42.686;23.374;2022-09-09T12:46:00;95017.63;;;30.39;42.31
22257;BME280;11297;42.686;23.374;2022-09-09T12:48:41;95000.22;;;30.15;41.56
22257;BME280;11297;42.686;23.374;2022-09-09T12:51:21;95010.84;;;29.90;42.61
22257;BME280;11297;42.686;23.374;2022-09-09T12:53:51;95008.56;;;29.73;42.48
22257;BME280;11297;42.686;23.374;2022-09-09T12:56:22;95011.84;;;29.64;42.45
22257;BME280;11297;42.686;23.374;2022-09-09T12:58:52;95011.25;;;29.57;43.84
22257;BME280;11297;42.686;23.374;2022-09-09T13:01:25;95000.13;;;29.58;43.24
22257;BME280;11297;42.686;23.374;2022-09-09T13:03:50;94996.44;;;29.68;43.58
22257;BME280;11297;42.686;23.374;2022-09-09T13:06:24;94995.03;;;29.80;41.87
22257;BME280;11297;42.686;23.374;2022-09-09T13:08:55;94986.78;;;29.87;43.00
22257;BME280;11297;42.686;23.374;2022-09-09T13:11:39;94999.91;;;30.13;42.98
22257;BME280;11297;42.686;23.374;2022-09-09T13:14:16;94989.03;;;30.04;41.26
22257;BME280;11297;42.686;23.374;2022-09-09T13:16:55;94988.31;;;29.56;41.92
22257;BME280;11297;42.686;23.374;2022-09-09T13:19:21;94988.75;;;29.54;42.29
22257;BME280;11297;42.686;23.374;2022-09-09T13:21:47;94978.53;;;29.65;42.71
22257;BME280;11297;42.686;23.374;2022-09-09T13:24:31;94983.78;;;29.69;42.12
22257;BME280;11297;42.686;23.374;2022-09-09T13:27:21;94981.19;;;29.49;42.54
22257;BME280;11297;42.686;23.374;2022-09-09T13:29:53;94978.34;;;29.56;42.10
22257;BME280;11297;42.686;23.374;2022-09-09T13:32:23;94961.13;;;29.57;42.96
22257;BME280;11297;42.686;23.374;2022-09-09T13:39:56;94972.25;;;29.24;42.67
22257;BME280;11297;42.686;23.374;2022-09-09T13:42:25;94970.66;;;29.27;44.31
22257;BME280;11297;42.686;23.374;2022-09-09T13:44:51;94974.25;;;29.36;44.49
22257;BME280;11297;42.686;23.374;2022-09-09T13:47:19;94967.22;;;29.42;43.60
22257;BME280;11297;42.686;23.374;2022-09-09T13:49:45;94962.53;;;29.46;43.80
22257;BME280;11297;42.686;23.374;2022-09-09T13:52:16;94957.94;;;29.46;43.98
22257;BME280;11297;42.686;23.374;2022-09-09T13:54:47;94951.34;;;29.35;43.74
22257;BME280;11297;42.686;23.374;2022-09-09T13:57:16;94957.69;;;29.41;44.18
22257;BME280;11297;42.686;23.374;2022-09-09T13:59:44;94958.19;;;29.52;43.51
22257;BME280;11297;42.686;23.374;2022-09-09T14:02:09;94959.13;;;29.45;43.17
22257;BME280;11297;42.686;23.374;2022-09-09T14:04:35;94951.50;;;29.44;43.63
22257;BME280;11297;42.686;23.374;2022-09-09T14:07:01;94946.31;;;29.53;42.04
22257;BME280;11297;42.686;23.374;2022-09-09T14:09:26;94958.59;;;29.66;44.63
22257;BME280;11297;42.686;23.374;2022-09-09T14:11:52;94961.91;;;29.70;43.19
22257;BME280;11297;42.686;23.374;2022-09-09T14:14:17;94949.63;;;29.73;43.12
22257;BME280;11297;42.686;23.374;2022-09-09T14:16:43;94944.94;;;29.77;43.06
22257;BME280;11297;42.686;23.374;2022-09-09T14:19:08;94931.06;;;29.94;43.15
22257;BME280;11297;42.686;23.374;2022-09-09T14:21:34;94934.66;;;30.03;42.42
22257;BME280;11297;42.686;23.374;2022-09-09T14:24:00;94933.19;;;29.87;42.07
22257;BME280;11297;42.686;23.374;2022-09-09T14:26:26;94939.88;;;29.94;42.74
22257;BME280;11297;42.686;23.374;2022-09-09T14:28:53;94930.16;;;30.00;42.32
22257;BME280;11297;42.686;23.374;2022-09-09T14:31:19;94932.03;;;29.88;42.23
22257;BME280;11297;42.686;23.374;2022-09-09T14:33:45;94931.28;;;29.87;43.37
22257;BME280;11297;42.686;23.374;2022-09-09T14:36:11;94940.31;;;29.93;43.76
22257;BME280;11297;42.686;23.374;2022-09-09T14:38:37;94936.66;;;29.87;42.89
22257;BME280;11297;42.686;23.374;2022-09-09T14:41:09;94933.88;;;29.91;41.25
22257;BME280;11297;42.686;23.374;2022-09-09T14:43:37;94932.28;;;29.77;42.49
22257;BME280;11297;42.686;23.374;2022-09-09T14:46:08;94926.91;;;29.77;43.28
22257;BME280;11297;42.686;23.374;2022-09-09T14:48:35;94927.34;;;29.76;43.37
22257;BME280;11297;42.686;23.374;2022-09-09T14:51:08;94922.94;;;29.69;43.18
22257;BME280;11297;42.686;23.374;2022-09-09T14:53:34;94928.50;;;29.75;42.40
22257;BME280;11297;42.686;23.374;2022-09-09T14:56:04;94922.53;;;29.55;42.80
22257;BME280;11297;42.686;23.374;2022-09-09T14:58:30;94926.38;;;29.54;43.15
22257;BME280;11297;42.686;23.374;2022-09-09T15:01:02;94933.59;;;29.41;43.36
22257;BME280;11297;42.686;23.374;2022-09-09T15:03:28;94938.28;;;29.37;43.76
22257;BME280;11297;42.686;23.374;2022-09-09T15:05:53;94934.59;;;29.31;44.32
22257;BME280;11297;42.686;23.374;2022-09-09T15:08:18;94936.84;;;29.33;44.78
22257;BME280;11297;42.686;23.374;2022-09-09T15:10:44;94937.00;;;29.26;44.14
22257;BME280;11297;42.686;23.374;2022-09-09T15:13:10;94941.00;;;29.18;45.28
22257;BME280;11297;42.686;23.374;2022-09-09T15:15:35;94941.34;;;29.20;46.21
22257;BME280;11297;42.686;23.374;2022-09-09T15:18:00;94942.94;;;29.17;46.17
22257;BME280;11297;42.686;23.374;2022-09-09T15:20:26;94948.53;;;29.23;43.46
22257;BME280;11297;42.686;23.374;2022-09-09T15:22:51;94951.03;;;29.14;45.94
22257;BME280;11297;42.686;23.374;2022-09-09T15:25:17;94942.84;;;29.21;45.79